Time;durP1;ratioP1;P1;durP2;ratioP2;P2;SDS_P1;SDS_P2;PMS_P1;PMS_P2;Temp;Humidity;BMP_temperature;BMP_pressure;BME280_temperature;BME280_humidity;BME280_pressure;Samples;Min_cycle;Max_cycle;Signal;HPM_P1;HPM_P2
2023/08/03 00:02:23;;;;;;;17.48;4.90;;;19.80;99.90;;;;;;5053430;28;20551;-60
2023/08/03 00:04:48;;;;;;;19.75;5.18;;;19.80;99.90;;;;;;5053212;28;20558;-60
2023/08/03 00:07:14;;;;;;;18.52;4.75;;;19.90;99.90;;;;;;5052993;28;20437;-60
2023/08/03 00:09:41;;;;;;;19.40;5.03;;;19.90;99.90;;;;;;5053084;28;20032;-60
2023/08/03 00:12:07;;;;;;;18.08;4.68;;;19.80;99.90;;;;;;5053179;28;20108;-60
2023/08/03 00:14:33;;;;;;;20.58;5.45;;;20.00;99.90;;;;;;5053512;28;20017;-60
2023/08/03 00:16:58;;;;;;;19.67;5.50;;;20.10;99.90;;;;;;5053113;28;20044;-60
2023/08/03 00:19:25;;;;;;;17.45;4.90;;;20.30;99.90;;;;;;5052746;28;20029;-60
2023/08/03 00:21:50;;;;;;;21.80;5.60;;;20.40;99.90;;;;;;5052795;28;20024;-60
2023/08/03 00:24:16;;;;;;;20.23;5.93;;;20.60;99.90;;;;;;5051804;28;20057;-60
2023/08/03 00:26:42;;;;;;;16.83;5.43;;;20.60;99.90;;;;;;5052847;28;20449;-60
2023/08/03 00:29:07;;;;;;;21.42;5.72;;;20.60;99.90;;;;;;5053249;28;20468;-60
2023/08/03 00:31:33;;;;;;;17.60;4.80;;;20.70;99.90;;;;;;5052814;28;20047;-60
2023/08/03 00:33:59;;;;;;;16.60;4.93;;;20.70;99.90;;;;;;5052695;28;20502;-59
2023/08/03 00:36:24;;;;;;;19.73;4.95;;;20.60;99.90;;;;;;5052373;28;20116;-60
2023/08/03 00:38:50;;;;;;;19.48;4.88;;;20.60;99.90;;;;;;5052536;28;20056;-60
2023/08/03 00:41:16;;;;;;;21.50;5.10;;;20.60;99.90;;;;;;5052777;28;20064;-60
2023/08/03 00:43:42;;;;;;;21.83;5.72;;;20.60;99.90;;;;;;5051174;28;20028;-61
2023/08/03 00:46:08;;;;;;;20.92;5.15;;;20.70;99.90;;;;;;5052485;28;20037;-60
2023/08/03 00:48:34;;;;;;;17.42;4.70;;;20.40;99.90;;;;;;5052446;28;20044;-60
2023/08/03 00:50:59;;;;;;;18.45;5.07;;;20.20;99.90;;;;;;5052494;28;20517;-60
2023/08/03 00:53:25;;;;;;;22.35;5.95;;;20.00;99.90;;;;;;5052414;28;20474;-60
2023/08/03 00:55:51;;;;;;;19.70;5.25;;;20.00;99.90;;;;;;5052444;28;20485;-60
2023/08/03 00:58:16;;;;;;;21.63;5.55;;;20.00;99.90;;;;;;5052114;28;20563;-60
2023/08/03 01:00:42;;;;;;;19.00;5.13;;;19.90;99.90;;;;;;5052189;28;20032;-61
2023/08/03 01:03:08;;;;;;;22.02;5.38;;;19.90;99.90;;;;;;5052124;28;20100;-61
2023/08/03 01:05:33;;;;;;;24.55;6.32;;;19.80;99.90;;;;;;5051775;28;20036;-60
2023/08/03 01:07:59;;;;;;;17.95;4.88;;;19.80;99.90;;;;;;5052156;28;20053;-60
2023/08/03 01:10:27;;;;;;;20.65;5.43;;;19.80;99.90;;;;;;5051906;28;20033;-60
2023/08/03 01:12:52;;;;;;;18.45;5.18;;;19.80;99.90;;;;;;5052044;28;20032;-60
2023/08/03 01:15:18;;;;;;;19.13;5.05;;;19.80;99.90;;;;;;5052222;28;20094;-60
2023/08/03 01:17:44;;;;;;;16.80;4.85;;;19.70;99.90;;;;;;5051866;28;20047;-59
2023/08/03 01:20:10;;;;;;;21.65;5.45;;;19.70;99.90;;;;;;5051331;28;20036;-60
2023/08/03 01:22:42;;;;;;;17.58;5.35;;;19.70;99.90;;;;;;5051902;28;20545;-60
2023/08/03 01:25:09;;;;;;;21.33;5.38;;;19.70;99.90;;;;;;5051780;28;20052;-60
2023/08/03 01:27:34;;;;;;;17.23;4.78;;;19.70;99.90;;;;;;5052094;28;20113;-60
2023/08/03 01:30:00;;;;;;;19.70;5.00;;;19.70;99.90;;;;;;5051692;28;20096;-60
2023/08/03 01:32:26;;;;;;;16.48;4.57;;;19.80;99.90;;;;;;5051829;28;20075;-60
2023/08/03 01:34:52;;;;;;;15.02;4.50;;;20.00;99.90;;;;;;5051108;28;20894;-60
2023/08/03 01:37:18;;;;;;;20.38;5.85;;;20.20;99.90;;;;;;5050331;28;20044;-60
2023/08/03 01:39:47;;;;;;;18.60;5.30;;;20.40;99.90;;;;;;5051953;28;20037;-60
2023/08/03 01:42:13;;;;;;;19.25;5.18;;;20.40;99.90;;;;;;5051618;28;20104;-60
2023/08/03 01:44:40;;;;;;;20.13;5.88;;;20.50;99.90;;;;;;5051362;28;20039;-60
2023/08/03 01:47:06;;;;;;;25.45;6.72;;;20.50;99.90;;;;;;5051416;28;20033;-60
2023/08/03 01:49:32;;;;;;;20.77;6.13;;;20.60;99.90;;;;;;5051067;28;20099;-60
2023/08/03 01:51:58;;;;;;;22.55;6.55;;;20.60;99.90;;;;;;5051808;28;20513;-60
2023/08/03 01:54:24;;;;;;;24.27;6.05;;;20.40;99.90;;;;;;5051695;28;20025;-60
2023/08/03 01:56:51;;;;;;;24.02;6.28;;;20.40;99.90;;;;;;5051305;28;20029;-60
2023/08/03 01:59:16;;;;;;;27.02;6.47;;;20.50;99.90;;;;;;5051183;28;20485;-60
2023/08/03 02:01:42;;;;;;;23.58;6.32;;;20.50;99.90;;;;;;5050980;28;20099;-60
2023/08/03 02:04:07;;;;;;;21.20;5.60;;;20.50;99.90;;;;;;5051483;28;20560;-60
2023/08/03 02:06:33;;;;;;;17.92;5.38;;;20.30;99.90;;;;;;5051224;28;20505;-60
2023/08/03 02:08:59;;;;;;;20.27;5.75;;;20.10;99.90;;;;;;5051168;28;20014;-60
2023/08/03 02:11:26;;;;;;;18.08;4.95;;;20.10;99.90;;;;;;5051009;28;20037;-60
2023/08/03 02:13:51;;;;;;;14.30;4.47;;;19.90;99.90;;;;;;5050840;28;20528;-60
2023/08/03 02:16:17;;;;;;;17.15;4.50;;;19.70;99.90;;;;;;5051169;28;20025;-59
2023/08/03 02:18:43;;;;;;;15.75;4.50;;;19.70;99.90;;;;;;5050817;28;20061;-60
2023/08/03 02:21:08;;;;;;;14.38;4.40;;;19.50;99.90;;;;;;5051016;28;20029;-60
2023/08/03 02:23:34;;;;;;;19.55;4.90;;;19.40;99.90;;;;;;5050749;28;20032;-60
2023/08/03 02:26:03;;;;;;;13.80;4.35;;;19.30;99.90;;;;;;5050982;28;20029;-60
2023/08/03 02:28:32;;;;;;;16.23;4.82;;;19.30;99.90;;;;;;5050864;28;20405;-60
2023/08/03 02:30:58;;;;;;;16.60;4.47;;;19.30;99.90;;;;;;5049332;28;20029;-60
2023/08/03 02:33:24;;;;;;;17.75;4.50;;;19.30;99.90;;;;;;5050912;28;20028;-60
2023/08/03 02:35:50;;;;;;;17.92;5.03;;;19.30;99.90;;;;;;5051295;28;20028;-60
2023/08/03 02:38:16;;;;;;;17.55;4.57;;;19.30;99.90;;;;;;5050787;28;20036;-60
2023/08/03 02:40:41;;;;;;;14.40;4.07;;;19.30;99.90;;;;;;5050891;28;20024;-61
2023/08/03 02:43:07;;;;;;;17.65;4.35;;;19.30;99.90;;;;;;5050842;28;20509;-60
2023/08/03 02:45:33;;;;;;;19.65;5.55;;;19.30;99.90;;;;;;5050366;28;20032;-60
2023/08/03 02:47:59;;;;;;;18.77;4.90;;;19.30;99.90;;;;;;5051824;28;20056;-60
2023/08/03 02:50:24;;;;;;;16.60;4.88;;;19.30;99.90;;;;;;5054675;28;20037;-60
2023/08/03 02:52:50;;;;;;;17.05;5.18;;;19.60;99.90;;;;;;5054655;28;20025;-60
2023/08/03 02:55:16;;;;;;;16.40;4.82;;;19.80;99.90;;;;;;5055034;28;20045;-60
2023/08/03 02:57:42;;;;;;;19.27;6.18;;;19.90;99.90;;;;;;5054396;28;20521;-60
2023/08/03 03:00:09;;;;;;;22.35;5.47;;;20.10;99.90;;;;;;5054034;28;20037;-60
2023/08/03 03:02:36;;;;;;;17.63;5.07;;;20.20;99.90;;;;;;5054773;28;20033;-60
2023/08/03 03:05:02;;;;;;;18.27;5.65;;;20.10;99.90;;;;;;5054406;28;20020;-59
2023/08/03 03:07:27;;;;;;;17.13;5.50;;;20.20;99.90;;;;;;5054420;28;20031;-60
2023/08/03 03:09:53;;;;;;;20.50;5.60;;;20.30;99.90;;;;;;5054735;28;20370;-60
2023/08/03 03:12:19;;;;;;;17.85;5.38;;;20.30;99.90;;;;;;5054135;28;20075;-60
2023/08/03 03:14:44;;;;;;;18.83;5.32;;;20.20;99.90;;;;;;5053803;28;20028;-60
2023/08/03 03:17:10;;;;;;;18.15;4.95;;;20.30;99.90;;;;;;5054676;28;20037;-60
2023/08/03 03:19:35;;;;;;;20.52;5.55;;;20.30;99.90;;;;;;5053933;28;20111;-60
2023/08/03 03:22:01;;;;;;;23.95;6.38;;;20.30;99.90;;;;;;5054104;28;20033;-60
2023/08/03 03:24:27;;;;;;;19.58;5.18;;;20.00;99.90;;;;;;5052977;28;20060;-61
2023/08/03 03:26:53;;;;;;;23.30;6.22;;;19.90;99.90;;;;;;5053979;28;20112;-60
2023/08/03 03:29:19;;;;;;;18.90;5.40;;;19.80;99.90;;;;;;5053612;28;20520;-60
2023/08/03 03:31:45;;;;;;;20.13;5.25;;;19.70;99.90;;;;;;5053808;28;20025;-60
2023/08/03 03:34:10;;;;;;;16.77;4.78;;;19.70;99.90;;;;;;5053873;28;20029;-60
2023/08/03 03:36:36;;;;;;;16.30;4.78;;;19.60;99.90;;;;;;5054174;28;20032;-60
2023/08/03 03:39:02;;;;;;;14.68;4.30;;;19.40;99.90;;;;;;5053688;28;20037;-59
2023/08/03 03:41:27;;;;;;;11.98;3.78;;;19.40;99.90;;;;;;5052321;28;20035;-60
2023/08/03 03:43:53;;;;;;;10.52;3.45;;;19.40;99.90;;;;;;5053464;28;20482;-60
2023/08/03 03:46:18;;;;;;;8.05;3.25;;;19.30;99.90;;;;;;5053758;28;20497;-60
2023/08/03 03:48:44;;;;;;;11.93;2.78;;;19.30;99.90;;;;;;5053516;28;20553;-60
2023/08/03 03:51:10;;;;;;;9.85;2.88;;;19.30;99.90;;;;;;5053606;28;20017;-60
2023/08/03 03:53:35;;;;;;;11.38;3.80;;;19.30;99.90;;;;;;5053791;28;20031;-60
2023/08/03 03:56:02;;;;;;;14.30;3.58;;;19.20;99.90;;;;;;5053186;28;20036;-60
2023/08/03 03:58:28;;;;;;;11.15;3.58;;;19.30;99.90;;;;;;5053223;28;20044;-60
2023/08/03 04:00:54;;;;;;;12.82;3.40;;;19.30;99.90;;;;;;5053367;28;20437;-59
2023/08/03 04:03:19;;;;;;;13.18;3.70;;;19.30;99.90;;;;;;5053334;28;20025;-60
2023/08/03 04:05:45;;;;;;;12.82;3.78;;;19.30;99.90;;;;;;5053347;28;20041;-60
2023/08/03 04:08:11;;;;;;;14.77;3.92;;;19.40;99.90;;;;;;5053218;28;20501;-60
2023/08/03 04:10:36;;;;;;;15.85;4.32;;;19.60;99.90;;;;;;5053603;28;20387;-60
2023/08/03 04:13:02;;;;;;;12.43;3.90;;;19.90;99.90;;;;;;5053149;28;20029;-59
2023/08/03 04:15:28;;;;;;;15.40;4.07;;;19.90;99.90;;;;;;5033250;28;20072;-60
2023/08/03 04:17:54;;;;;;;14.60;3.55;;;20.10;99.90;;;;;;5033243;28;20025;-60
2023/08/03 04:20:19;;;;;;;15.40;4.00;;;20.30;99.90;;;;;;5051627;28;20040;-60
2023/08/03 04:22:45;;;;;;;13.05;3.60;;;20.20;99.90;;;;;;5052992;28;20032;-60
2023/08/03 04:25:11;;;;;;;11.55;3.50;;;20.20;99.90;;;;;;5052768;28;20061;-59
2023/08/03 04:27:37;;;;;;;15.85;4.65;;;20.10;99.90;;;;;;5052843;28;20097;-59
2023/08/03 04:30:03;;;;;;;12.23;3.78;;;20.20;99.90;;;;;;5052847;28;20029;-60
2023/08/03 04:32:28;;;;;;;9.40;3.45;;;20.30;99.90;;;;;;5052918;28;20048;-60
2023/08/03 04:34:54;;;;;;;11.88;3.70;;;20.20;99.90;;;;;;5053121;28;20481;-60
2023/08/03 04:37:19;;;;;;;12.13;3.97;;;20.20;99.90;;;;;;5052760;28;20485;-60
2023/08/03 04:39:46;;;;;;;12.57;3.88;;;20.00;99.90;;;;;;5052483;28;20091;-60
2023/08/03 04:42:11;;;;;;;16.35;4.18;;;19.90;99.90;;;;;;5052239;28;20611;-60
2023/08/03 04:44:37;;;;;;;16.13;4.07;;;19.70;99.90;;;;;;5052953;28;20059;-60
2023/08/03 04:47:03;;;;;;;16.15;4.50;;;19.60;99.90;;;;;;5052480;28;20032;-61
2023/08/03 04:49:28;;;;;;;20.50;4.70;;;19.50;99.90;;;;;;5052367;28;20033;-60
2023/08/03 04:51:54;;;;;;;14.57;3.97;;;19.40;99.90;;;;;;5052835;28;20017;-60
2023/08/03 04:54:20;;;;;;;17.30;4.25;;;19.30;99.90;;;;;;5052311;28;20048;-60
2023/08/03 04:56:46;;;;;;;15.57;4.30;;;19.30;99.90;;;;;;5052195;28;20017;-60
2023/08/03 04:59:12;;;;;;;16.20;4.10;;;19.30;99.90;;;;;;5052171;28;20094;-60
2023/08/03 05:01:38;;;;;;;13.70;4.32;;;19.30;99.90;;;;;;5052448;28;20253;-60
2023/08/03 05:04:04;;;;;;;19.63;4.07;;;19.30;99.90;;;;;;5052190;28;20025;-61
2023/08/03 05:06:29;;;;;;;14.10;3.92;;;19.30;99.90;;;;;;5052150;28;20025;-61
2023/08/03 05:08:55;;;;;;;16.95;4.32;;;19.30;99.90;;;;;;5051981;28;20075;-60
2023/08/03 05:11:21;;;;;;;13.73;3.80;;;19.30;99.90;;;;;;5051009;28;20025;-60
2023/08/03 05:13:47;;;;;;;14.48;4.38;;;19.30;99.90;;;;;;5052318;28;20035;-61
2023/08/03 05:16:12;;;;;;;13.68;3.97;;;19.40;99.90;;;;;;5051962;28;20025;-60
2023/08/03 05:18:38;;;;;;;16.25;4.43;;;19.40;99.90;;;;;;5051706;28;20035;-60
2023/08/03 05:21:04;;;;;;;11.80;4.20;;;19.30;99.90;;;;;;5051938;28;20025;-60
2023/08/03 05:23:29;;;;;;;15.68;4.13;;;19.20;99.90;;;;;;5051622;28;20083;-60
2023/08/03 05:25:56;;;;;;;13.93;3.63;;;19.20;99.90;;;;;;5050359;28;20063;-60
2023/08/03 05:28:23;;;;;;;13.00;4.15;;;19.30;99.90;;;;;;5051658;28;20448;-60
2023/08/03 05:30:49;;;;;;;14.88;4.03;;;19.30;99.90;;;;;;5051777;28;20500;-60
2023/08/03 05:33:15;;;;;;;13.52;3.88;;;19.20;99.90;;;;;;5051853;28;20021;-60
2023/08/03 05:35:41;;;;;;;9.13;3.25;;;19.20;99.90;;;;;;5051578;28;20020;-60
2023/08/03 05:38:07;;;;;;;11.45;3.30;;;19.30;99.90;;;;;;5051436;28;20048;-59
2023/08/03 05:40:33;;;;;;;8.95;3.00;;;19.30;99.90;;;;;;5051280;28;20029;-60
2023/08/03 05:42:59;;;;;;;7.85;2.60;;;19.50;99.90;;;;;;5051812;28;20037;-60
2023/08/03 05:45:44;;;;;;;5.82;2.05;;;19.60;99.90;;;;;;5051387;28;20029;-60
2023/08/03 05:48:20;;;;;;;5.50;1.85;;;19.50;99.90;;;;;;5051022;28;20033;-60
2023/08/03 05:50:48;;;;;;;8.70;2.60;;;19.60;99.90;;;;;;5051402;28;20517;-60
2023/08/03 05:53:14;;;;;;;9.77;2.72;;;19.50;99.90;;;;;;5051293;28;20190;-60
2023/08/03 05:55:41;;;;;;;7.65;2.50;;;19.60;99.90;;;;;;5051345;28;20039;-60
2023/08/03 05:58:10;;;;;;;10.00;2.85;;;19.50;99.90;;;;;;5051194;28;20106;-60
2023/08/03 06:00:35;;;;;;;8.40;2.67;;;19.30;99.90;;;;;;5051264;28;20107;-60
2023/08/03 06:03:01;;;;;;;11.55;3.47;;;19.30;99.90;;;;;;5051253;28;20525;-60
2023/08/03 06:05:41;;;;;;;9.65;3.20;;;19.30;99.90;;;;;;5051405;28;20037;-60
2023/08/03 06:08:21;;;;;;;11.68;3.53;;;19.20;99.90;;;;;;5051538;28;20029;-61
2023/08/03 06:10:51;;;;;;;13.73;3.25;;;19.20;99.90;;;;;;5051051;28;20501;-60
2023/08/03 06:13:29;;;;;;;14.73;3.95;;;19.20;99.90;;;;;;5051118;28;20596;-60
2023/08/03 06:15:54;;;;;;;12.20;3.38;;;19.20;99.90;;;;;;5051122;28;20028;-60
2023/08/03 06:18:21;;;;;;;15.30;4.20;;;19.20;99.90;;;;;;5050961;28;20025;-60
2023/08/03 06:20:51;;;;;;;13.98;3.70;;;19.10;99.90;;;;;;5050904;28;20401;-60
2023/08/03 06:23:24;;;;;;;11.32;3.22;;;18.70;99.90;;;;;;5053444;28;20037;-60
2023/08/03 06:25:51;;;;;;;10.00;2.92;;;18.60;99.90;;;;;;5055065;28;20051;-60
2023/08/03 06:28:22;;;;;;;12.45;3.20;;;18.40;99.90;;;;;;5055062;28;20035;-60
2023/08/03 06:30:49;;;;;;;8.30;2.80;;;18.40;99.90;;;;;;5055044;28;20490;-60
2023/08/03 06:33:16;;;;;;;7.68;2.65;;;18.30;99.90;;;;;;5055079;28;20616;-59
2023/08/03 06:35:44;;;;;;;9.80;3.33;;;18.30;99.90;;;;;;5055197;28;20033;-60
2023/08/03 06:38:12;;;;;;;10.07;2.80;;;18.40;99.90;;;;;;5054486;28;20024;-60
2023/08/03 06:40:40;;;;;;;9.65;3.50;;;18.30;99.90;;;;;;5054965;28;20048;-60
2023/08/03 06:43:06;;;;;;;9.60;3.10;;;18.40;99.90;;;;;;5055021;28;20075;-60
2023/08/03 06:45:33;;;;;;;13.90;3.88;;;18.70;99.90;;;;;;5054826;28;20021;-60
2023/08/03 06:48:00;;;;;;;10.00;3.13;;;19.00;99.90;;;;;;5054947;28;20498;-60
2023/08/03 06:50:28;;;;;;;12.90;3.35;;;19.10;99.90;;;;;;5054402;28;20025;-60
2023/08/03 06:52:54;;;;;;;12.23;3.65;;;19.30;99.90;;;;;;5054311;28;20025;-60
2023/08/03 06:55:19;;;;;;;15.10;3.40;;;19.40;99.90;;;;;;5054964;28;20033;-60
2023/08/03 06:57:46;;;;;;;15.05;4.13;;;19.60;99.90;;;;;;5054663;28;20108;-60
2023/08/03 07:00:12;;;;;;;12.52;3.90;;;19.70;99.90;;;;;;5054438;28;20419;-60
2023/08/03 07:02:38;;;;;;;21.20;4.95;;;19.90;99.90;;;;;;5054480;28;20025;-60
2023/08/03 07:05:04;;;;;;;18.73;4.97;;;20.00;99.90;;;;;;5054213;28;20112;-60
2023/08/03 07:07:30;;;;;;;14.73;4.63;;;20.30;99.90;;;;;;5054485;28;20432;-60
2023/08/03 07:09:56;;;;;;;16.58;4.53;;;20.30;99.90;;;;;;5054267;28;20025;-60
2023/08/03 07:12:21;;;;;;;18.67;4.80;;;20.30;99.90;;;;;;5054237;28;20074;-60
2023/08/03 07:14:47;;;;;;;20.88;5.00;;;20.10;99.90;;;;;;5054072;28;20037;-60
2023/08/03 07:17:13;;;;;;;14.65;4.32;;;20.10;99.90;;;;;;5054414;28;20025;-60
2023/08/03 07:19:40;;;;;;;18.85;4.97;;;19.90;99.90;;;;;;5054195;28;20044;-60
2023/08/03 07:22:06;;;;;;;13.25;4.15;;;19.70;99.90;;;;;;5053872;28;20025;-60
2023/08/03 07:24:33;;;;;;;16.88;4.70;;;19.40;99.90;;;;;;5053996;28;20052;-60
2023/08/03 07:27:02;;;;;;;17.38;4.40;;;19.30;99.90;;;;;;5054467;28;20031;-60
2023/08/03 07:29:29;;;;;;;19.73;5.05;;;19.30;99.90;;;;;;5053899;28;20497;-60
2023/08/03 07:31:55;;;;;;;17.13;5.18;;;19.20;99.90;;;;;;5054294;28;20382;-60
2023/08/03 07:34:21;;;;;;;19.08;5.22;;;19.00;99.90;;;;;;5053315;28;20104;-60
2023/08/03 07:36:46;;;;;;;18.73;5.28;;;18.90;99.90;;;;;;5052117;28;20123;-60
2023/08/03 07:39:13;;;;;;;17.45;5.07;;;18.70;99.90;;;;;;5053823;28;20059;-59
2023/08/03 07:41:38;;;;;;;15.90;4.75;;;18.70;99.90;;;;;;5054128;28;20022;-60
2023/08/03 07:44:04;;;;;;;19.75;4.97;;;18.70;99.90;;;;;;5053727;28;20029;-60
2023/08/03 07:46:30;;;;;;;22.00;6.50;;;18.60;99.90;;;;;;5053649;28;20017;-59
2023/08/03 07:48:56;;;;;;;23.90;7.07;;;18.40;99.90;;;;;;5053851;28;20029;-60
2023/08/03 07:51:23;;;;;;;22.45;6.25;;;18.20;99.90;;;;;;5053337;28;20029;-60
2023/08/03 07:53:49;;;;;;;19.95;5.85;;;18.00;99.90;;;;;;5053673;28;20063;-59
2023/08/03 07:56:21;;;;;;;18.15;5.57;;;18.10;99.90;;;;;;5053478;28;20022;-60
2023/08/03 07:58:48;;;;;;;20.17;5.68;;;18.20;99.90;;;;;;5053296;28;20037;-59
2023/08/03 08:01:14;;;;;;;22.52;6.28;;;18.40;99.90;;;;;;5053832;28;20025;-60
2023/08/03 08:03:41;;;;;;;18.88;5.45;;;18.60;99.90;;;;;;5053235;28;20025;-60
2023/08/03 08:06:12;;;;;;;19.95;6.10;;;18.90;99.90;;;;;;5052937;28;20329;-60
2023/08/03 08:08:39;;;;;;;20.13;5.93;;;19.00;99.90;;;;;;5053352;28;20371;-60
2023/08/03 08:11:05;;;;;;;24.45;6.30;;;19.10;99.90;;;;;;5053233;28;20025;-60
2023/08/03 08:13:31;;;;;;;24.13;6.05;;;19.30;99.90;;;;;;5053045;28;20021;-60
2023/08/03 08:16:02;;;;;;;20.40;5.05;;;19.50;99.90;;;;;;5053602;28;20036;-60
2023/08/03 08:18:28;;;;;;;22.45;6.47;;;19.70;99.90;;;;;;5053084;28;20025;-60
2023/08/03 08:20:55;;;;;;;21.02;5.93;;;19.80;99.90;;;;;;5052798;28;20025;-59
2023/08/03 08:23:20;;;;;;;25.45;6.25;;;19.80;99.90;;;;;;5053000;28;20036;-60
2023/08/03 08:25:46;;;;;;;21.88;5.97;;;19.70;99.90;;;;;;5053214;28;20061;-60
2023/08/03 08:28:12;;;;;;;17.63;5.25;;;19.90;99.90;;;;;;5052927;28;20570;-60
2023/08/03 08:30:37;;;;;;;13.68;3.90;;;19.80;99.90;;;;;;5052712;28;20029;-60
2023/08/03 08:33:03;;;;;;;11.57;3.60;;;19.50;99.90;;;;;;5052917;28;20153;-60
2023/08/03 08:35:29;;;;;;;12.48;3.58;;;19.40;99.90;;;;;;5052482;28;20037;-60
2023/08/03 08:37:54;;;;;;;12.10;3.13;;;19.30;99.90;;;;;;5052875;28;20452;-60
2023/08/03 08:40:20;;;;;;;10.27;3.03;;;19.40;99.90;;;;;;5052820;28;20406;-59
2023/08/03 08:42:53;;;;;;;9.77;3.38;;;19.50;99.90;;;;;;5052581;28;20029;-60
2023/08/03 08:45:19;;;;;;;10.65;3.55;;;19.70;99.90;;;;;;5051764;28;20029;-60
2023/08/03 08:47:45;;;;;;;11.90;3.10;;;19.70;99.90;;;;;;5052108;28;20513;-59
2023/08/03 08:50:11;;;;;;;13.70;3.88;;;19.70;99.90;;;;;;5052564;28;20032;-60
2023/08/03 08:52:40;;;;;;;10.57;3.50;;;19.60;99.90;;;;;;5052504;28;20033;-60
2023/08/03 08:55:18;;;;;;;16.70;4.30;;;19.40;99.90;;;;;;5052742;28;20032;-60
2023/08/03 08:57:44;;;;;;;12.88;3.90;;;19.40;99.90;;;;;;5052318;28;20079;-60
2023/08/03 09:00:11;;;;;;;15.13;4.05;;;19.50;99.90;;;;;;5052104;28;20044;-60
2023/08/03 09:02:37;;;;;;;15.52;3.95;;;19.60;99.90;;;;;;5051945;28;20021;-60
2023/08/03 09:05:15;;;;;;;17.27;4.03;;;19.70;99.90;;;;;;5052161;28;20526;-60
2023/08/03 09:07:41;;;;;;;10.40;3.28;;;19.80;99.90;;;;;;5052404;28;20478;-60
2023/08/03 09:10:08;;;;;;;15.15;4.15;;;19.80;99.90;;;;;;5052167;28;20298;-60
2023/08/03 09:12:34;;;;;;;14.68;3.42;;;20.00;99.90;;;;;;5052128;28;20104;-60
2023/08/03 09:15:01;;;;;;;12.65;3.47;;;19.90;99.90;;;;;;5051677;28;20494;-60
2023/08/03 09:17:27;;;;;;;11.52;3.67;;;20.00;99.90;;;;;;5051105;28;20116;-60
2023/08/03 09:19:54;;;;;;;11.25;3.20;;;20.40;99.90;;;;;;5052130;28;20029;-60
2023/08/03 09:22:22;;;;;;;11.00;3.35;;;20.60;99.90;;;;;;5051848;28;20029;-60
2023/08/03 09:25:08;;;;;;;12.50;3.42;;;20.70;99.90;;;;;;5051868;28;20064;-60
2023/08/03 09:27:35;;;;;;;10.13;3.10;;;20.80;99.90;;;;;;5051735;28;20029;-60
2023/08/03 09:30:03;;;;;;;10.52;2.83;;;20.90;99.90;;;;;;5051718;28;20017;-60
2023/08/03 09:32:34;;;;;;;9.00;3.00;;;21.00;99.90;;;;;;5051820;28;20071;-60
2023/08/03 09:35:01;;;;;;;10.13;3.00;;;21.00;99.90;;;;;;5051637;28;20038;-59
2023/08/03 09:37:37;;;;;;;11.02;3.30;;;20.90;99.90;;;;;;5051667;28;20029;-60
2023/08/03 09:40:05;;;;;;;11.52;3.45;;;21.00;99.90;;;;;;5051750;28;20033;-59
2023/08/03 09:42:32;;;;;;;10.35;2.88;;;21.00;99.90;;;;;;5051591;28;20029;-60
2023/08/03 09:45:01;;;;;;;10.02;3.30;;;20.90;99.90;;;;;;5051364;28;20021;-60
2023/08/03 09:47:27;;;;;;;11.05;3.53;;;20.90;99.90;;;;;;5051519;28;20032;-60
2023/08/03 09:49:53;;;;;;;12.57;3.33;;;21.00;99.90;;;;;;5051595;28;20037;-60
2023/08/03 09:52:24;;;;;;;11.82;3.88;;;20.90;99.90;;;;;;5051509;28;20025;-60
2023/08/03 09:55:20;;;;;;;13.15;3.10;;;20.80;99.90;;;;;;5051375;28;20033;-60
2023/08/03 09:57:55;;;;;;;11.85;3.50;;;20.70;99.90;;;;;;5050574;28;20041;-60
2023/08/03 10:00:21;;;;;;;13.88;3.25;;;20.70;99.90;;;;;;5050786;28;20438;-60
2023/08/03 10:02:56;;;;;;;14.57;3.50;;;20.60;99.90;;;;;;5051615;28;20490;-60
2023/08/03 10:05:24;;;;;;;10.13;3.05;;;20.70;99.90;;;;;;5051263;28;20096;-60
2023/08/03 10:08:13;;;;;;;13.10;3.58;;;20.70;99.90;;;;;;5051227;28;20060;-60
2023/08/03 10:10:47;;;;;;;15.43;4.00;;;20.60;99.90;;;;;;5051180;28;20082;-60
2023/08/03 10:13:14;;;;;;;14.07;3.97;;;20.50;99.90;;;;;;5051364;28;20040;-60
2023/08/03 10:15:41;;;;;;;14.30;3.97;;;20.60;99.90;;;;;;5050755;28;20033;-60
2023/08/03 10:18:06;;;;;;;16.60;4.10;;;20.70;99.90;;;;;;5050918;28;20024;-60
2023/08/03 10:20:34;;;;;;;16.15;4.15;;;20.80;99.90;;;;;;5051053;28;20037;-60
2023/08/03 10:23:08;;;;;;;11.98;3.35;;;20.80;99.90;;;;;;5050989;28;20071;-60
2023/08/03 10:25:49;;;;;;;13.48;3.83;;;20.80;99.90;;;;;;5050814;28;20536;-60
2023/08/03 10:28:14;;;;;;;10.23;3.40;;;21.00;99.90;;;;;;5051132;28;20089;-60
2023/08/03 10:31:05;;;;;;;11.07;3.42;;;21.00;99.90;;;;;;5051052;28;20104;-60
2023/08/03 10:33:51;;;;;;;13.93;3.50;;;20.90;99.90;;;;;;5050849;28;20047;-60
2023/08/03 10:36:29;;;;;;;14.40;3.63;;;21.10;99.90;;;;;;5051123;28;20029;-60
2023/08/03 10:39:03;;;;;;;11.60;3.40;;;21.30;99.90;;;;;;5050771;28;20097;-60
2023/08/03 10:41:36;;;;;;;14.15;3.95;;;21.60;99.90;;;;;;5050756;28;20057;-60
2023/08/03 10:44:12;;;;;;;15.52;4.05;;;21.90;99.90;;;;;;5050516;28;20032;-60
2023/08/03 10:46:40;;;;;;;15.02;4.07;;;22.00;99.90;;;;;;5050869;28;20417;-60
2023/08/03 10:49:22;;;;;;;13.60;3.78;;;22.10;99.90;;;;;;5051160;28;20116;-60
2023/08/03 10:51:49;;;;;;;14.38;4.25;;;22.00;99.90;;;;;;5051289;28;20037;-60
2023/08/03 10:54:15;;;;;;;17.10;4.75;;;21.90;99.90;;;;;;5050452;28;20579;-60
2023/08/03 10:57:02;;;;;;;13.77;3.78;;;21.80;99.90;;;;;;5051003;28;20079;-60
2023/08/03 10:59:27;;;;;;;16.67;4.15;;;21.00;99.90;;;;;;5050272;28;20040;-60
2023/08/03 11:01:53;;;;;;;15.95;4.15;;;20.70;99.90;;;;;;5050714;28;20024;-59
2023/08/03 11:04:23;;;;;;;15.60;4.28;;;20.80;99.90;;;;;;5050681;28;20382;-60
2023/08/03 11:06:51;;;;;;;19.40;4.72;;;21.10;99.90;;;;;;5050940;28;20095;-60
2023/08/03 11:09:17;;;;;;;17.75;3.97;;;21.40;99.90;;;;;;5053061;28;20029;-60
2023/08/03 11:11:45;;;;;;;13.20;3.90;;;21.60;99.90;;;;;;5053985;28;20028;-60
2023/08/03 11:14:13;;;;;;;17.80;4.22;;;21.80;99.90;;;;;;5053642;28;20079;-60
2023/08/03 11:16:39;;;;;;;14.23;3.78;;;21.60;99.90;;;;;;5054657;28;20545;-60
2023/08/03 11:19:05;;;;;;;12.57;4.18;;;21.50;99.90;;;;;;5053975;28;20108;-60
2023/08/03 11:21:30;;;;;;;17.60;4.40;;;21.30;99.90;;;;;;5054124;28;20091;-60
2023/08/03 11:23:56;;;;;;;18.10;4.60;;;21.00;99.90;;;;;;5054051;28;20041;-60
2023/08/03 11:26:22;;;;;;;12.23;4.10;;;21.00;99.90;;;;;;5053905;28;20037;-60
2023/08/03 11:28:48;;;;;;;14.70;3.88;;;20.90;99.90;;;;;;5052463;28;20032;-60
2023/08/03 11:31:16;;;;;;;16.20;4.07;;;20.80;99.90;;;;;;5054545;28;20151;-60
2023/08/03 11:33:51;;;;;;;13.40;3.80;;;21.10;99.90;;;;;;5053951;28;20032;-59
2023/08/03 11:36:17;;;;;;;13.02;3.85;;;21.30;99.90;;;;;;5053901;28;20519;-59
2023/08/03 11:38:44;;;;;;;13.98;3.80;;;21.30;99.90;;;;;;5053868;28;20502;-60
2023/08/03 11:41:14;;;;;;;13.98;3.70;;;21.50;99.90;;;;;;5054433;28;20029;-60
2023/08/03 11:43:40;;;;;;;11.10;3.85;;;21.40;99.90;;;;;;5053113;28;20487;-60
2023/08/03 11:46:06;;;;;;;10.32;3.15;;;21.60;99.90;;;;;;5054056;28;20029;-60
2023/08/03 11:48:32;;;;;;;7.70;2.70;;;21.60;99.90;;;;;;5053669;28;20501;-60
2023/08/03 11:50:58;;;;;;;8.55;2.95;;;21.50;99.90;;;;;;5053635;28;20099;-60
2023/08/03 11:53:25;;;;;;;8.82;2.92;;;21.30;99.90;;;;;;5053604;28;20025;-60
2023/08/03 11:55:51;;;;;;;11.40;3.60;;;21.30;99.90;;;;;;5053730;28;20029;-60
2023/08/03 11:58:22;;;;;;;13.77;4.20;;;21.50;99.90;;;;;;5053175;28;20116;-60
2023/08/03 12:00:48;;;;;;;14.48;4.30;;;21.50;99.90;;;;;;5053283;28;20044;-60
2023/08/03 12:03:31;;;;;;;15.20;3.92;;;21.60;99.90;;;;;;5053853;28;20029;-60
2023/08/03 12:06:01;;;;;;;12.80;4.07;;;21.90;99.90;;;;;;5053461;28;20104;-60
2023/08/03 12:08:27;;;;;;;10.15;3.35;;;22.10;99.90;;;;;;5053171;28;20033;-59
2023/08/03 12:11:06;;;;;;;10.98;3.58;;;22.40;99.90;;;;;;5052984;28;20025;-60
2023/08/03 12:13:32;;;;;;;10.90;3.53;;;22.50;99.90;;;;;;5053112;28;20033;-60
2023/08/03 12:15:58;;;;;;;13.35;3.30;;;22.40;99.90;;;;;;5053300;28;20028;-59
2023/08/03 12:18:25;;;;;;;12.05;3.65;;;22.20;99.90;;;;;;5052948;28;20032;-59
2023/08/03 12:20:51;;;;;;;12.45;3.47;;;22.40;99.90;;;;;;5053055;28;20024;-60
2023/08/03 12:23:20;;;;;;;15.32;3.97;;;22.40;99.90;;;;;;5053054;28;20036;-60
2023/08/03 12:25:46;;;;;;;14.00;3.95;;;22.30;99.90;;;;;;5052916;28;20045;-60
2023/08/03 12:28:12;;;;;;;13.95;3.63;;;22.20;99.90;;;;;;5052577;28;20116;-60
2023/08/03 12:30:39;;;;;;;14.00;4.32;;;22.10;99.90;;;;;;5053097;28;20028;-60
2023/08/03 12:33:09;;;;;;;12.23;3.83;;;22.00;99.90;;;;;;5052984;28;20029;-60
2023/08/03 12:35:35;;;;;;;12.93;3.75;;;22.00;99.90;;;;;;5052996;28;20033;-60
2023/08/03 12:38:01;;;;;;;14.23;4.07;;;21.80;99.90;;;;;;5052224;28;20025;-60
2023/08/03 12:40:27;;;;;;;13.35;3.67;;;21.60;99.90;;;;;;5052649;28;20508;-60